sensor_id;sensor_type;location;lat;lon;timestamp;pressure;altitude;pressure_sealevel;temperature;humidity
70781;BME280;59514;48.810;2.134;2022-10-23T00:01:39;99774.09;;;16.79;85.93
70781;BME280;59514;48.810;2.134;2022-10-23T00:04:09;99765.66;;;16.80;85.62
70781;BME280;59514;48.810;2.134;2022-10-23T00:06:35;99755.94;;;16.74;85.19
70781;BME280;59514;48.810;2.134;2022-10-23T00:09:02;99752.44;;;16.74;85.66
70781;BME280;59514;48.810;2.134;2022-10-23T00:11:30;99760.06;;;16.72;85.38
70781;BME280;59514;48.810;2.134;2022-10-23T00:13:57;99755.94;;;16.74;86.54
70781;BME280;59514;48.810;2.134;2022-10-23T00:16:23;99755.94;;;16.74;86.07
70781;BME280;59514;48.810;2.134;2022-10-23T00:18:49;99744.56;;;16.77;85.54
70781;BME280;59514;48.810;2.134;2022-10-23T00:21:15;99752.69;;;16.77;85.76
70781;BME280;59514;48.810;2.134;2022-10-23T00:23:41;99745.09;;;16.74;85.37
70781;BME280;59514;48.810;2.134;2022-10-23T00:26:10;99738.88;;;16.74;85.88
70781;BME280;59514;48.810;2.134;2022-10-23T00:28:39;99737.25;;;16.73;85.88
70781;BME280;59514;48.810;2.134;2022-10-23T00:31:04;99732.13;;;16.71;85.80
70781;BME280;59514;48.810;2.134;2022-10-23T00:33:31;99727.81;;;16.70;85.88
70781;BME280;59514;48.810;2.134;2022-10-23T00:35:56;99724.00;;;16.71;85.85
70781;BME280;59514;48.810;2.134;2022-10-23T00:38:22;99718.56;;;16.71;85.94
70781;BME280;59514;48.810;2.134;2022-10-23T00:40:48;99719.38;;;16.72;86.02
70781;BME280;59514;48.810;2.134;2022-10-23T00:43:23;99713.44;;;16.70;85.12
70781;BME280;59514;48.810;2.134;2022-10-23T00:45:48;99718.84;;;16.70;85.12
70781;BME280;59514;48.810;2.134;2022-10-23T00:48:15;99714.25;;;16.70;85.38
70781;BME280;59514;48.810;2.134;2022-10-23T00:50:41;99700.13;;;16.73;84.54
70781;BME280;59514;48.810;2.134;2022-10-23T00:53:07;99696.31;;;16.74;84.32
70781;BME280;59514;48.810;2.134;2022-10-23T00:55:35;99693.34;;;16.76;84.81
70781;BME280;59514;48.810;2.134;2022-10-23T00:58:02;99682.25;;;16.72;84.31
70781;BME280;59514;48.810;2.134;2022-10-23T01:00:39;99685.22;;;16.71;84.38
70781;BME280;59514;48.810;2.134;2022-10-23T01:03:05;99681.19;;;16.68;84.20
70781;BME280;59514;48.810;2.134;2022-10-23T01:05:36;99675.47;;;16.70;84.35
70781;BME280;59514;48.810;2.134;2022-10-23T01:08:28;99681.13;;;16.73;84.71
70781;BME280;59514;48.810;2.134;2022-10-23T01:11:03;99669.47;;;16.78;83.59
70781;BME280;59514;48.810;2.134;2022-10-23T01:13:38;99671.66;;;16.76;83.76
70781;BME280;59514;48.810;2.134;2022-10-23T01:16:15;99671.66;;;16.76;83.49
70781;BME280;59514;48.810;2.134;2022-10-23T01:19:01;99671.88;;;16.79;84.16
70781;BME280;59514;48.810;2.134;2022-10-23T01:26:59;99655.31;;;16.81;83.05
70781;BME280;59514;48.810;2.134;2022-10-23T01:29:38;99653.97;;;16.83;82.96
70781;BME280;59514;48.810;2.134;2022-10-23T01:37:13;99651.47;;;16.87;83.49
70781;BME280;59514;48.810;2.134;2022-10-23T01:39:44;99657.50;;;16.84;82.76
70781;BME280;59514;48.810;2.134;2022-10-23T01:42:16;99650.13;;;16.84;83.08
70781;BME280;59514;48.810;2.134;2022-10-23T01:44:44;99639.88;;;16.81;83.46
70781;BME280;59514;48.810;2.134;2022-10-23T01:47:14;99645.59;;;16.80;83.32
70781;BME280;59514;48.810;2.134;2022-10-23T01:49:41;99639.09;;;16.76;83.26
70781;BME280;59514;48.810;2.134;2022-10-23T01:52:12;99627.44;;;16.75;84.19
70781;BME280;59514;48.810;2.134;2022-10-23T01:54:40;99622.59;;;16.72;83.35
70781;BME280;59514;48.810;2.134;2022-10-23T01:57:09;99620.16;;;16.71;83.76
70781;BME280;59514;48.810;2.134;2022-10-23T01:59:47;99612.03;;;16.71;83.40
70781;BME280;59514;48.810;2.134;2022-10-23T02:02:15;99612.56;;;16.73;83.62
70781;BME280;59514;48.810;2.134;2022-10-23T02:04:49;99607.72;;;16.70;83.35
70781;BME280;59514;48.810;2.134;2022-10-23T02:07:19;99618.84;;;16.68;83.57
70781;BME280;59514;48.810;2.134;2022-10-23T02:09:44;99605.00;;;16.70;83.44
70781;BME280;59514;48.810;2.134;2022-10-23T02:12:22;99603.88;;;16.71;83.27
70781;BME280;59514;48.810;2.134;2022-10-23T02:15:09;99607.94;;;16.73;83.66
70781;BME280;59514;48.810;2.134;2022-10-23T02:20:42;99589.03;;;16.68;83.57
70781;BME280;59514;48.810;2.134;2022-10-23T02:23:18;99583.31;;;16.70;84.05
70781;BME280;59514;48.810;2.134;2022-10-23T02:25:52;99575.19;;;16.70;83.93
70781;BME280;59514;48.810;2.134;2022-10-23T02:28:23;99571.13;;;16.67;84.35
70781;BME280;59514;48.810;2.134;2022-10-23T02:30:51;99568.72;;;16.66;84.24
70781;BME280;59514;48.810;2.134;2022-10-23T02:33:18;99566.81;;;16.66;84.68
70781;BME280;59514;48.810;2.134;2022-10-23T02:35:44;99570.59;;;16.65;84.74
70781;BME280;59514;48.810;2.134;2022-10-23T02:38:28;99568.13;;;16.69;84.50
70781;BME280;59514;48.810;2.134;2022-10-23T02:40:57;99559.47;;;16.67;84.11
70781;BME280;59514;48.810;2.134;2022-10-23T02:43:34;99562.69;;;16.69;84.76
70781;BME280;59514;48.810;2.134;2022-10-23T02:46:14;99556.22;;;16.65;84.38
70781;BME280;59514;48.810;2.134;2022-10-23T02:48:47;99559.47;;;16.67;84.61
70781;BME280;59514;48.810;2.134;2022-10-23T02:51:31;99557.56;;;16.67;84.69
70781;BME280;59514;48.810;2.134;2022-10-23T02:54:10;99542.97;;;16.63;84.94
70781;BME280;59514;48.810;2.134;2022-10-23T02:59:32;99536.19;;;16.66;85.03
70781;BME280;59514;48.810;2.134;2022-10-23T03:02:21;99521.25;;;16.68;84.97
70781;BME280;59514;48.810;2.134;2022-10-23T03:04:49;99511.78;;;16.66;85.53
70781;BME280;59514;48.810;2.134;2022-10-23T03:07:17;99512.34;;;16.63;84.82
70781;BME280;59514;48.810;2.134;2022-10-23T03:09:43;99505.63;;;16.60;85.14
70781;BME280;59514;48.810;2.134;2022-10-23T03:12:09;99507.22;;;16.61;85.21
70781;BME280;59514;48.810;2.134;2022-10-23T03:14:34;99515.13;;;16.58;85.56
70781;BME280;59514;48.810;2.134;2022-10-23T03:17:00;99510.25;;;16.55;85.72
70781;BME280;59514;48.810;2.134;2022-10-23T03:19:25;99502.63;;;16.57;85.26
70781;BME280;59514;48.810;2.134;2022-10-23T03:21:50;99503.16;;;16.59;85.73
70781;BME280;59514;48.810;2.134;2022-10-23T03:24:16;99506.41;;;16.61;85.42
70781;BME280;59514;48.810;2.134;2022-10-23T03:26:41;99499.31;;;16.65;85.22
70781;BME280;59514;48.810;2.134;2022-10-23T03:29:06;99498.22;;;16.66;84.94
70781;BME280;59514;48.810;2.134;2022-10-23T03:31:31;99491.44;;;16.68;85.03
70781;BME280;59514;48.810;2.134;2022-10-23T03:33:57;99492.22;;;16.69;85.10
70781;BME280;59514;48.810;2.134;2022-10-23T03:36:23;99493.91;;;16.65;84.95
70781;BME280;59514;48.810;2.134;2022-10-23T03:38:48;99499.31;;;16.65;84.98
70781;BME280;59514;48.810;2.134;2022-10-23T03:41:14;99501.47;;;16.68;85.27
70781;BME280;59514;48.810;2.134;2022-10-23T03:43:39;99499.91;;;16.62;85.48
70781;BME280;59514;48.810;2.134;2022-10-23T03:46:04;99511.56;;;16.62;85.17
70781;BME280;59514;48.810;2.134;2022-10-23T03:48:33;99503.66;;;16.66;84.79
70781;BME280;59514;48.810;2.134;2022-10-23T03:51:02;99500.94;;;16.66;85.07
70781;BME280;59514;48.810;2.134;2022-10-23T03:53:28;99504.22;;;16.63;84.73
70781;BME280;59514;48.810;2.134;2022-10-23T03:55:53;99503.47;;;16.57;85.48
70781;BME280;59514;48.810;2.134;2022-10-23T03:58:18;99503.50;;;16.52;85.92
70781;BME280;59514;48.810;2.134;2022-10-23T04:00:43;99494.03;;;16.50;85.80
70781;BME280;59514;48.810;2.134;2022-10-23T04:03:09;99498.66;;;16.49;85.99
70781;BME280;59514;48.810;2.134;2022-10-23T04:05:34;99502.44;;;16.48;85.90
70781;BME280;59514;48.810;2.134;2022-10-23T04:08:00;99503.50;;;16.47;85.97
70781;BME280;59514;48.810;2.134;2022-10-23T04:10:25;99503.81;;;16.46;85.85
70781;BME280;59514;48.810;2.134;2022-10-23T04:12:50;99503.31;;;16.38;86.97
70781;BME280;59514;48.810;2.134;2022-10-23T04:15:16;99508.16;;;16.42;86.88
70781;BME280;59514;48.810;2.134;2022-10-23T04:17:41;99519.50;;;16.49;86.85
70781;BME280;59514;48.810;2.134;2022-10-23T04:20:07;99525.47;;;16.46;86.66
70781;BME280;59514;48.810;2.134;2022-10-23T04:22:32;99526.03;;;16.42;86.68
70781;BME280;59514;48.810;2.134;2022-10-23T04:24:57;99527.66;;;16.44;87.74
70781;BME280;59514;48.810;2.134;2022-10-23T04:27:23;99534.13;;;16.48;87.59
70781;BME280;59514;48.810;2.134;2022-10-23T04:29:48;99527.66;;;16.44;88.49
70781;BME280;59514;48.810;2.134;2022-10-23T04:32:14;99518.47;;;16.39;88.12
70781;BME280;59514;48.810;2.134;2022-10-23T04:34:39;99494.09;;;16.39;88.58
70781;BME280;59514;48.810;2.134;2022-10-23T04:37:04;99465.97;;;16.35;89.10
70781;BME280;59514;48.810;2.134;2022-10-23T04:39:30;99465.72;;;16.32;89.97
70781;BME280;59514;48.810;2.134;2022-10-23T04:41:55;99464.69;;;16.28;90.78
70781;BME280;59514;48.810;2.134;2022-10-23T04:44:20;99492.59;;;16.23;91.45
70781;BME280;59514;48.810;2.134;2022-10-23T04:46:46;99534.28;;;16.27;90.61
70781;BME280;59514;48.810;2.134;2022-10-23T04:49:11;99552.13;;;16.33;89.85
70781;BME280;59514;48.810;2.134;2022-10-23T04:51:36;99543.47;;;16.31;89.55
70781;BME280;59514;48.810;2.134;2022-10-23T04:54:03;99536.41;;;16.35;89.80
70781;BME280;59514;48.810;2.134;2022-10-23T04:56:28;99518.25;;;16.36;89.64
70781;BME280;59514;48.810;2.134;2022-10-23T04:58:53;99512.84;;;16.36;89.92
70781;BME280;59514;48.810;2.134;2022-10-23T05:01:19;99499.59;;;16.29;90.58
70781;BME280;59514;48.810;2.134;2022-10-23T05:03:44;99492.59;;;16.28;90.81
70781;BME280;59514;48.810;2.134;2022-10-23T05:06:09;99488.75;;;16.29;90.95
70781;BME280;59514;48.810;2.134;2022-10-23T05:08:35;99484.72;;;16.27;91.47
70781;BME280;59514;48.810;2.134;2022-10-23T05:11:00;99474.16;;;16.25;92.03
70781;BME280;59514;48.810;2.134;2022-10-23T05:13:26;99489.59;;;16.25;91.75
70781;BME280;59514;48.810;2.134;2022-10-23T05:15:52;99476.66;;;16.22;92.83
70781;BME280;59514;48.810;2.134;2022-10-23T05:18:21;99463.94;;;16.17;93.50
70781;BME280;59514;48.810;2.134;2022-10-23T05:20:51;99447.69;;;16.17;92.94
70781;BME280;59514;48.810;2.134;2022-10-23T05:23:20;99451.16;;;16.23;92.90
70781;BME280;59514;48.810;2.134;2022-10-23T05:25:48;99440.69;;;16.16;93.68
70781;BME280;59514;48.810;2.134;2022-10-23T05:28:13;99440.69;;;16.11;94.47
70781;BME280;59514;48.810;2.134;2022-10-23T05:30:38;99439.03;;;16.15;94.17
70781;BME280;59514;48.810;2.134;2022-10-23T05:33:04;99423.09;;;16.09;94.66
70781;BME280;59514;48.810;2.134;2022-10-23T05:35:30;99405.25;;;16.08;94.33
70781;BME280;59514;48.810;2.134;2022-10-23T05:37:56;99409.41;;;15.95;94.86
70781;BME280;59514;48.810;2.134;2022-10-23T05:40:23;99415.66;;;15.96;95.91
70781;BME280;59514;48.810;2.134;2022-10-23T05:42:49;99413.75;;;15.96;95.89
70781;BME280;59514;48.810;2.134;2022-10-23T05:45:14;99412.63;;;16.02;95.73
70781;BME280;59514;48.810;2.134;2022-10-23T05:47:43;99414.53;;;16.02;95.79
70781;BME280;59514;48.810;2.134;2022-10-23T05:50:08;99414.03;;;15.95;95.73
70781;BME280;59514;48.810;2.134;2022-10-23T05:52:33;99412.44;;;15.89;96.68
70781;BME280;59514;48.810;2.134;2022-10-23T05:54:59;99419.25;;;15.86;96.72
70781;BME280;59514;48.810;2.134;2022-10-23T05:57:24;99427.31;;;15.91;96.72
70781;BME280;59514;48.810;2.134;2022-10-23T05:59:49;99425.66;;;15.95;97.02
70781;BME280;59514;48.810;2.134;2022-10-23T06:02:15;99428.59;;;15.99;96.39
70781;BME280;59514;48.810;2.134;2022-10-23T06:04:40;99419.41;;;16.00;97.07
70781;BME280;59514;48.810;2.134;2022-10-23T06:07:05;99406.94;;;15.99;96.28
70781;BME280;59514;48.810;2.134;2022-10-23T06:09:30;99411.59;;;15.98;96.22
70781;BME280;59514;48.810;2.134;2022-10-23T06:11:56;99412.66;;;15.97;96.50
70781;BME280;59514;48.810;2.134;2022-10-23T06:14:21;99408.91;;;15.93;96.09
70781;BME280;59514;48.810;2.134;2022-10-23T06:16:46;99411.66;;;15.88;96.59
70781;BME280;59514;48.810;2.134;2022-10-23T06:19:12;99423.84;;;15.86;95.95
70781;BME280;59514;48.810;2.134;2022-10-23T06:21:39;99422.47;;;15.88;96.60
70781;BME280;59514;48.810;2.134;2022-10-23T06:24:05;99401.97;;;15.82;96.83
70781;BME280;59514;48.810;2.134;2022-10-23T06:26:31;99403.31;;;15.80;97.35
70781;BME280;59514;48.810;2.134;2022-10-23T06:28:56;99400.31;;;15.81;97.86
70781;BME280;59514;48.810;2.134;2022-10-23T06:31:22;99401.16;;;15.82;97.20
70781;BME280;59514;48.810;2.134;2022-10-23T06:33:52;99393.84;;;15.82;96.60
70781;BME280;59514;48.810;2.134;2022-10-23T06:36:18;99391.13;;;15.82;97.07
70781;BME280;59514;48.810;2.134;2022-10-23T06:38:43;99395.97;;;15.85;96.59
70781;BME280;59514;48.810;2.134;2022-10-23T06:41:20;99389.47;;;15.86;95.63
70781;BME280;59514;48.810;2.134;2022-10-23T06:43:50;99382.16;;;15.87;95.83
70781;BME280;59514;48.810;2.134;2022-10-23T06:46:17;99392.41;;;15.90;95.31
70781;BME280;59514;48.810;2.134;2022-10-23T06:48:43;99397.25;;;15.93;94.82
70781;BME280;59514;48.810;2.134;2022-10-23T06:51:10;99381.28;;;15.96;94.21
70781;BME280;59514;48.810;2.134;2022-10-23T06:53:36;99383.97;;;15.96;93.76
70781;BME280;59514;48.810;2.134;2022-10-23T06:56:02;99385.06;;;15.95;94.32
70781;BME280;59514;48.810;2.134;2022-10-23T06:58:28;99371.75;;;15.99;94.05
70781;BME280;59514;48.810;2.134;2022-10-23T07:00:54;99369.84;;;15.99;94.32
70781;BME280;59514;48.810;2.134;2022-10-23T07:03:19;99368.25;;;15.98;94.31
70781;BME280;59514;48.810;2.134;2022-10-23T07:05:44;99370.97;;;15.98;94.47
70781;BME280;59514;48.810;2.134;2022-10-23T07:08:12;99365.25;;;16.00;94.25
70781;BME280;59514;48.810;2.134;2022-10-23T07:10:38;99364.44;;;15.99;94.50
70781;BME280;59514;48.810;2.134;2022-10-23T07:13:07;99369.03;;;15.99;93.97
70781;BME280;59514;48.810;2.134;2022-10-23T07:15:32;99376.31;;;16.03;94.35
70781;BME280;59514;48.810;2.134;2022-10-23T07:17:58;99368.16;;;16.08;93.74
70781;BME280;59514;48.810;2.134;2022-10-23T07:20:23;99358.94;;;16.09;93.27
70781;BME280;59514;48.810;2.134;2022-10-23T07:22:53;99353.22;;;16.11;93.09
70781;BME280;59514;48.810;2.134;2022-10-23T07:25:20;99356.75;;;16.11;93.35
70781;BME280;59514;48.810;2.134;2022-10-23T07:27:45;99355.94;;;16.11;93.49
70781;BME280;59514;48.810;2.134;2022-10-23T07:30:12;99363.00;;;16.07;93.70
70781;BME280;59514;48.810;2.134;2022-10-23T07:32:38;99364.59;;;16.13;93.06
70781;BME280;59514;48.810;2.134;2022-10-23T07:35:03;99363.72;;;16.17;93.29
70781;BME280;59514;48.810;2.134;2022-10-23T07:37:29;99362.91;;;16.17;92.99
70781;BME280;59514;48.810;2.134;2022-10-23T07:39:55;99350.72;;;16.19;93.01
70781;BME280;59514;48.810;2.134;2022-10-23T07:42:20;99349.38;;;16.17;92.93
70781;BME280;59514;48.810;2.134;2022-10-23T07:44:45;99361.03;;;16.17;92.85
70781;BME280;59514;48.810;2.134;2022-10-23T07:47:11;99356.34;;;16.23;92.67
70781;BME280;59514;48.810;2.134;2022-10-23T07:49:36;99351.97;;;16.27;92.41
70781;BME280;59514;48.810;2.134;2022-10-23T07:52:03;99349.53;;;16.30;92.12
70781;BME280;59514;48.810;2.134;2022-10-23T07:54:29;99350.03;;;16.32;91.48
70781;BME280;59514;48.810;2.134;2022-10-23T07:56:54;99349.47;;;16.35;91.50
70781;BME280;59514;48.810;2.134;2022-10-23T07:59:20;99353.22;;;16.39;91.02
70781;BME280;59514;48.810;2.134;2022-10-23T08:01:45;99356.44;;;16.42;90.77
70781;BME280;59514;48.810;2.134;2022-10-23T08:04:12;99354.25;;;16.44;90.12
70781;BME280;59514;48.810;2.134;2022-10-23T08:06:37;99347.72;;;16.50;90.91
70781;BME280;59514;48.810;2.134;2022-10-23T08:09:03;99351.97;;;16.56;90.38
70781;BME280;59514;48.810;2.134;2022-10-23T08:11:28;99351.41;;;16.59;89.73
70781;BME280;59514;48.810;2.134;2022-10-23T08:14:00;99346.50;;;16.61;90.27
70781;BME280;59514;48.810;2.134;2022-10-23T08:16:31;99348.13;;;16.62;89.47
70781;BME280;59514;48.810;2.134;2022-10-23T08:18:57;99349.44;;;16.64;89.36
70781;BME280;59514;48.810;2.134;2022-10-23T08:21:23;99333.94;;;16.70;89.38
70781;BME280;59514;48.810;2.134;2022-10-23T08:23:48;99329.03;;;16.72;89.19
70781;BME280;59514;48.810;2.134;2022-10-23T08:26:14;99333.84;;;16.75;89.33
70781;BME280;59514;48.810;2.134;2022-10-23T08:28:40;99321.34;;;16.79;88.84
70781;BME280;59514;48.810;2.134;2022-10-23T08:31:10;99318.84;;;16.82;88.45
70781;BME280;59514;48.810;2.134;2022-10-23T08:33:37;99319.66;;;16.83;87.72
70781;BME280;59514;48.810;2.134;2022-10-23T08:36:02;99318.50;;;16.89;88.07
70781;BME280;59514;48.810;2.134;2022-10-23T08:38:28;99324.13;;;16.92;87.61
70781;BME280;59514;48.810;2.134;2022-10-23T08:40:53;99332.00;;;16.94;87.15
70781;BME280;59514;48.810;2.134;2022-10-23T08:43:34;99340.03;;;16.99;86.83
70781;BME280;59514;48.810;2.134;2022-10-23T08:46:07;99346.50;;;17.03;86.37
70781;BME280;59514;48.810;2.134;2022-10-23T08:48:46;99339.91;;;17.09;86.42
70781;BME280;59514;48.810;2.134;2022-10-23T08:51:31;99343.34;;;17.14;85.35
70781;BME280;59514;48.810;2.134;2022-10-23T08:54:07;99333.75;;;17.22;85.38
70781;BME280;59514;48.810;2.134;2022-10-23T08:56:39;99326.63;;;17.26;84.97
70781;BME280;59514;48.810;2.134;2022-10-23T08:59:12;99322.22;;;17.30;85.13
70781;BME280;59514;48.810;2.134;2022-10-23T09:04:34;99330.81;;;17.37;84.68
70781;BME280;59514;48.810;2.134;2022-10-23T09:07:11;99339.47;;;17.39;84.67
70781;BME280;59514;48.810;2.134;2022-10-23T09:12:14;99341.31;;;17.44;84.09
70781;BME280;59514;48.810;2.134;2022-10-23T09:17:37;99328.72;;;17.53;83.48
70781;BME280;59514;48.810;2.134;2022-10-23T09:20:24;99315.34;;;17.56;83.16
70781;BME280;59514;48.810;2.134;2022-10-23T09:22:57;99312.06;;;17.59;83.05
70781;BME280;59514;48.810;2.134;2022-10-23T09:25:29;99320.09;;;17.64;82.62
70781;BME280;59514;48.810;2.134;2022-10-23T09:27:58;99312.97;;;17.68;82.23
70781;BME280;59514;48.810;2.134;2022-10-23T09:30:41;99318.84;;;17.75;81.58
70781;BME280;59514;48.810;2.134;2022-10-23T09:46:43;99308.16;;;18.25;76.78
70781;BME280;59514;48.810;2.134;2022-10-23T09:49:22;99317.84;;;18.31;77.05
70781;BME280;59514;48.810;2.134;2022-10-23T09:51:52;99322.66;;;18.34;75.84
70781;BME280;59514;48.810;2.134;2022-10-23T09:54:21;99298.69;;;18.36;75.62
70781;BME280;59514;48.810;2.134;2022-10-23T09:56:49;99301.34;;;18.41;76.23
70781;BME280;59514;48.810;2.134;2022-10-23T10:01:48;99293.09;;;18.46;75.67
70781;BME280;59514;48.810;2.134;2022-10-23T10:04:14;99292.50;;;18.49;75.24
70781;BME280;59514;48.810;2.134;2022-10-23T10:06:39;99288.06;;;18.53;74.80
70781;BME280;59514;48.810;2.134;2022-10-23T10:09:11;99291.31;;;18.55;75.60
70781;BME280;59514;48.810;2.134;2022-10-23T10:11:51;99290.09;;;18.61;74.79
70781;BME280;59514;48.810;2.134;2022-10-23T10:14:35;99287.75;;;18.68;74.43
70781;BME280;59514;48.810;2.134;2022-10-23T10:25:12;99280.97;;;18.92;73.30
70781;BME280;59514;48.810;2.134;2022-10-23T10:30:54;99288.59;;;19.04;72.64
70781;BME280;59514;48.810;2.134;2022-10-23T10:33:32;99286.56;;;19.10;72.94
70781;BME280;59514;48.810;2.134;2022-10-23T10:38:58;99286.94;;;19.17;72.02
70781;BME280;59514;48.810;2.134;2022-10-23T10:41:27;99285.72;;;19.23;72.38
70781;BME280;59514;48.810;2.134;2022-10-23T10:44:46;99273.38;;;19.25;73.10
70781;BME280;59514;48.810;2.134;2022-10-23T10:47:20;99271.97;;;19.28;71.99
70781;BME280;59514;48.810;2.134;2022-10-23T10:50:25;99288.00;;;19.29;72.13
70781;BME280;59514;48.810;2.134;2022-10-23T10:53:20;99264.53;;;19.33;72.08
70781;BME280;59514;48.810;2.134;2022-10-23T10:55:51;99271.34;;;19.44;71.77
70781;BME280;59514;48.810;2.134;2022-10-23T10:58:23;99276.22;;;19.56;71.12
70781;BME280;59514;48.810;2.134;2022-10-23T11:00:55;99264.25;;;19.65;71.25
70781;BME280;59514;48.810;2.134;2022-10-23T11:03:35;99266.41;;;19.77;70.37
70781;BME280;59514;48.810;2.134;2022-10-23T11:06:04;99256.19;;;19.83;69.72
70781;BME280;59514;48.810;2.134;2022-10-23T11:08:37;99247.22;;;19.82;70.00
70781;BME280;59514;48.810;2.134;2022-10-23T11:11:30;99236.34;;;19.91;69.50
70781;BME280;59514;48.810;2.134;2022-10-23T11:13:57;99236.88;;;20.01;69.34
70781;BME280;59514;48.810;2.134;2022-10-23T11:16:31;99230.19;;;20.07;69.00
70781;BME280;59514;48.810;2.134;2022-10-23T11:19:23;99229.09;;;20.08;68.70
70781;BME280;59514;48.810;2.134;2022-10-23T11:22:01;99222.00;;;20.07;68.71
70781;BME280;59514;48.810;2.134;2022-10-23T11:24:51;99214.00;;;20.11;69.39
70781;BME280;59514;48.810;2.134;2022-10-23T11:27:54;99224.44;;;20.17;68.62
70781;BME280;59514;48.810;2.134;2022-10-23T11:31:04;99232.22;;;20.24;67.91
70781;BME280;59514;48.810;2.134;2022-10-23T11:36:17;99221.50;;;20.36;67.71
70781;BME280;59514;48.810;2.134;2022-10-23T11:38:48;99227.16;;;20.48;67.46
70781;BME280;59514;48.810;2.134;2022-10-23T11:41:26;99222.50;;;20.57;67.70
70781;BME280;59514;48.810;2.134;2022-10-23T11:43:59;99218.69;;;20.75;66.46
70781;BME280;59514;48.810;2.134;2022-10-23T11:46:37;99225.59;;;20.81;64.99
70781;BME280;59514;48.810;2.134;2022-10-23T11:49:04;99213.25;;;20.84;65.13
70781;BME280;59514;48.810;2.134;2022-10-23T11:51:40;99219.31;;;20.72;65.17
70781;BME280;59514;48.810;2.134;2022-10-23T11:54:19;99210.47;;;20.58;66.01
70781;BME280;59514;48.810;2.134;2022-10-23T11:59:40;99211.78;;;20.86;64.81
70781;BME280;59514;48.810;2.134;2022-10-23T12:02:36;99195.94;;;21.05;64.35
70781;BME280;59514;48.810;2.134;2022-10-23T12:05:08;99186.94;;;21.13;63.97
70781;BME280;59514;48.810;2.134;2022-10-23T12:07:53;99186.94;;;21.13;64.04
70781;BME280;59514;48.810;2.134;2022-10-23T12:10:25;99173.75;;;21.15;63.58
70781;BME280;59514;48.810;2.134;2022-10-23T12:15:22;99160.88;;;21.24;63.60
70781;BME280;59514;48.810;2.134;2022-10-23T12:17:49;99158.00;;;21.29;62.54
70781;BME280;59514;48.810;2.134;2022-10-23T12:20:29;99148.81;;;21.34;62.81
70781;BME280;59514;48.810;2.134;2022-10-23T12:28:33;99146.56;;;22.20;60.37
70781;BME280;59514;48.810;2.134;2022-10-23T12:31:19;99147.31;;;22.29;59.29
70781;BME280;59514;48.810;2.134;2022-10-23T12:39:30;99135.03;;;21.77;61.14
70781;BME280;59514;48.810;2.134;2022-10-23T12:41:56;99139.91;;;21.63;62.10
70781;BME280;59514;48.810;2.134;2022-10-23T12:44:22;99121.59;;;21.55;61.69
70781;BME280;59514;48.810;2.134;2022-10-23T12:46:56;99121.28;;;21.48;62.19
70781;BME280;59514;48.810;2.134;2022-10-23T12:49:25;99104.34;;;21.33;62.48
70781;BME280;59514;48.810;2.134;2022-10-23T12:52:04;99108.53;;;21.22;63.15
70781;BME280;59514;48.810;2.134;2022-10-23T12:54:32;99095.38;;;21.16;62.99
70781;BME280;59514;48.810;2.134;2022-10-23T12:57:10;99102.47;;;21.08;63.57
70781;BME280;59514;48.810;2.134;2022-10-23T12:59:40;99088.19;;;21.03;63.58
70781;BME280;59514;48.810;2.134;2022-10-23T13:02:33;99071.78;;;20.94;63.61
70781;BME280;59514;48.810;2.134;2022-10-23T13:05:04;99072.78;;;20.90;64.29
70781;BME280;59514;48.810;2.134;2022-10-23T13:07:33;99060.91;;;20.86;64.35
70781;BME280;59514;48.810;2.134;2022-10-23T13:10:00;99066.69;;;20.84;64.67
70781;BME280;59514;48.810;2.134;2022-10-23T13:12:32;99066.19;;;20.82;64.39
70781;BME280;59514;48.810;2.134;2022-10-23T13:14:59;99052.06;;;20.80;64.85
70781;BME280;59514;48.810;2.134;2022-10-23T13:17:40;99035.56;;;20.77;65.40
70781;BME280;59514;48.810;2.134;2022-10-23T13:28:03;99007.66;;;20.71;65.92
70781;BME280;59514;48.810;2.134;2022-10-23T13:30:38;99006.84;;;20.71;65.90
70781;BME280;59514;48.810;2.134;2022-10-23T13:33:12;99003.78;;;20.72;66.05
70781;BME280;59514;48.810;2.134;2022-10-23T13:35:38;98988.22;;;20.81;65.71
70781;BME280;59514;48.810;2.134;2022-10-23T13:38:07;98990.66;;;21.20;64.38
70781;BME280;59514;48.810;2.134;2022-10-23T13:40:33;98995.16;;;21.54;62.18
70781;BME280;59514;48.810;2.134;2022-10-23T13:42:58;98985.13;;;21.67;62.17
70781;BME280;59514;48.810;2.134;2022-10-23T13:45:25;98992.38;;;21.63;61.81
70781;BME280;59514;48.810;2.134;2022-10-23T13:47:51;98980.75;;;21.45;62.19
70781;BME280;59514;48.810;2.134;2022-10-23T13:50:17;98981.41;;;21.42;62.40
70781;BME280;59514;48.810;2.134;2022-10-23T13:52:43;98972.91;;;21.43;62.41
70781;BME280;59514;48.810;2.134;2022-10-23T13:55:29;98976.09;;;21.46;62.29
70781;BME280;59514;48.810;2.134;2022-10-23T13:57:54;98974.31;;;21.70;61.64
70781;BME280;59514;48.810;2.134;2022-10-23T14:00:20;98959.44;;;21.88;61.20
70781;BME280;59514;48.810;2.134;2022-10-23T14:02:45;98962.41;;;21.95;61.06
70781;BME280;59514;48.810;2.134;2022-10-23T14:05:11;98963.81;;;22.22;60.12
70781;BME280;59514;48.810;2.134;2022-10-23T14:07:36;98951.81;;;22.47;59.19
70781;BME280;59514;48.810;2.134;2022-10-23T14:10:02;98957.81;;;22.61;58.59
70781;BME280;59514;48.810;2.134;2022-10-23T14:12:27;98967.78;;;22.78;58.46
70781;BME280;59514;48.810;2.134;2022-10-23T14:14:53;98949.19;;;22.83;58.00
70781;BME280;59514;48.810;2.134;2022-10-23T14:17:19;98924.09;;;22.81;58.46
70781;BME280;59514;48.810;2.134;2022-10-23T14:19:45;98940.31;;;22.86;57.59
70781;BME280;59514;48.810;2.134;2022-10-23T14:22:11;98929.84;;;22.88;57.74
70781;BME280;59514;48.810;2.134;2022-10-23T14:24:36;98926.66;;;22.98;57.42
70781;BME280;59514;48.810;2.134;2022-10-23T14:27:02;98926.31;;;23.00;57.46
70781;BME280;59514;48.810;2.134;2022-10-23T14:29:27;98938.06;;;23.00;57.06
70781;BME280;59514;48.810;2.134;2022-10-23T14:31:53;98957.88;;;22.85;57.90
70781;BME280;59514;48.810;2.134;2022-10-23T14:34:18;98952.16;;;22.78;58.31
70781;BME280;59514;48.810;2.134;2022-10-23T14:36:44;98954.47;;;22.88;57.72